»·PEaware :: WAT306 KOAK-KSAN

WAT306 :: KOAK-KSAN

FLIGHT INFORMATION

Flight Status: Arrived
Operator:
Walker Air Transport
More flights by this operator :: More flights under this callsign
Pilot: Ethan S. (29221)
Aircraft: SOCATA TBM-900
(TBM9)
More flights by this aircraft type
Origin: KOAK Metro Oakland Intl
United States
Destination: KSAN San Diego Intl-Lindbergh
United States
More flights between these airports :: More routes between these airports
Route: COAST9 MCKEY LAX COMIX2
File this flight plan on PilotEdge
Remarks:
Altitude:
(Current/Filed)
31,000ft
Speed:
(Current/Filed)
320kts
Departed: 18-Oct-20 01:41 PM
Arrived: 18-Oct-20 03:18 PM
Distance/Time
Traveled:
388nm/1:37
Distance/Time
To Go:
Arrived

Flight Plot

Page will automatically refresh every two minutes.

Flight plan parsing failed; only flown route is shown


Map Options




Map Legend


Flown Route
Filed Route
Departure Airport
Arrival Airport
Navaid (VOR, NDB)
Fix

Horizontal Profiles

Position Reports

Time Latitude Longitude Heading Altitude Ground
Speed
18-Oct-20 13:22 37.728599 -122.209996 125 6ft 0kts
18-Oct-20 13:23 37.728599 -122.209996 125 6ft 0kts
18-Oct-20 13:24 37.728598 -122.209996 125 6ft 0kts
18-Oct-20 13:25 37.728598 -122.209996 125 6ft 0kts
18-Oct-20 13:26 37.728598 -122.209996 125 6ft 0kts
18-Oct-20 13:27 37.728598 -122.209996 125 6ft 0kts
18-Oct-20 13:28 37.728598 -122.209996 125 6ft 0kts
18-Oct-20 13:29 37.728598 -122.209996 125 6ft 0kts
18-Oct-20 13:30 37.728598 -122.209996 125 6ft 0kts
18-Oct-20 13:30 37.728598 -122.209996 125 6ft 0kts
18-Oct-20 13:32 37.728598 -122.209996 125 6ft 0kts
18-Oct-20 13:32 37.728598 -122.209996 125 6ft 0kts
18-Oct-20 13:33 37.728598 -122.209996 125 6ft 0kts
18-Oct-20 13:34 37.728598 -122.209996 125 6ft 0kts
18-Oct-20 13:35 37.728598 -122.209996 125 6ft 0kts
18-Oct-20 13:36 37.728598 -122.209996 125 6ft 0kts
18-Oct-20 13:37 37.727422 -122.209457 129 6ft 13kts
18-Oct-20 13:38 37.725797 -122.204575 131 6ft 8kts
18-Oct-20 13:39 37.725577 -122.204484 190 6ft 2kts
18-Oct-20 13:40 37.728966 -122.217326 294 145ft 108kts
18-Oct-20 13:41 37.742011 -122.260955 291 1939ft 148kts
18-Oct-20 13:42 37.759890 -122.322122 291 2630ft 163kts
18-Oct-20 13:43 37.772945 -122.369142 291 4899ft 133kts
18-Oct-20 13:44 37.785418 -122.414627 291 6919ft 137kts
18-Oct-20 13:45 37.798073 -122.461062 291 8780ft 139kts
18-Oct-20 13:46 37.778790 -122.495617 189 10556ft 156kts
18-Oct-20 13:47 37.733422 -122.500252 187 12868ft 161kts
18-Oct-20 13:48 37.687341 -122.504663 186 15162ft 169kts
18-Oct-20 13:49 37.639392 -122.509178 185 17419ft 174kts
18-Oct-20 13:50 37.589770 -122.513835 185 19446ft 180kts
18-Oct-20 13:51 37.538020 -122.518690 184 21618ft 187kts
18-Oct-20 13:52 37.483024 -122.523835 184 23382ft 221kts
18-Oct-20 13:53 37.426274 -122.529143 183 26187ft 200kts
18-Oct-20 13:54 37.369677 -122.534422 183 28639ft 206kts
18-Oct-20 13:55 37.311088 -122.539878 183 30786ft 213kts
18-Oct-20 13:56 37.241780 -122.546307 183 31136ft 279kts
18-Oct-20 13:57 37.157706 -122.554090 183 31111ft 310kts
18-Oct-20 13:58 37.067228 -122.562505 182 31106ft 320kts
18-Oct-20 13:59 36.976109 -122.570825 184 31097ft 315kts
18-Oct-20 14:00 36.888458 -122.553048 168 31098ft 314kts
18-Oct-20 14:01 36.801740 -122.530160 169 31096ft 314kts
18-Oct-20 14:02 36.714612 -122.507568 169 31093ft 314kts
18-Oct-20 14:03 36.628386 -122.485264 169 31091ft 314kts
18-Oct-20 14:04 36.539703 -122.462378 169 31091ft 313kts
18-Oct-20 14:05 36.449451 -122.438918 166 31088ft 314kts
18-Oct-20 14:06 36.378545 -122.368205 131 31092ft 319kts
18-Oct-20 14:07 36.318115 -122.279792 132 31090ft 319kts
18-Oct-20 14:08 36.257917 -122.192090 132 31090ft 319kts
18-Oct-20 14:09 36.197684 -122.104572 132 31090ft 319kts
18-Oct-20 14:10 36.136949 -122.016549 132 31090ft 319kts
18-Oct-20 14:11 36.076891 -121.929730 132 31090ft 319kts
18-Oct-20 14:12 36.015997 -121.841944 131 31054ft 320kts
18-Oct-20 14:13 35.955319 -121.754674 131 31054ft 320kts
18-Oct-20 14:14 35.894871 -121.667963 131 31054ft 320kts
18-Oct-20 14:15 35.835064 -121.582399 131 31052ft 320kts
18-Oct-20 14:16 35.774291 -121.495670 131 31049ft 320kts
18-Oct-20 14:17 35.713697 -121.409416 131 31046ft 320kts
18-Oct-20 14:18 35.653174 -121.323480 132 31045ft 320kts
18-Oct-20 14:19 35.592853 -121.238044 132 31045ft 320kts
18-Oct-20 14:20 35.532930 -121.153360 132 31045ft 320kts
18-Oct-20 14:21 35.473837 -121.066568 126 31048ft 323kts
18-Oct-20 14:22 35.421180 -120.973342 126 31045ft 327kts
18-Oct-20 14:23 35.367689 -120.878747 126 31046ft 331kts
18-Oct-20 14:24 35.314335 -120.784651 126 31045ft 327kts
18-Oct-20 14:25 35.261217 -120.691233 126 31046ft 326kts
18-Oct-20 14:26 35.208059 -120.597981 126 31046ft 325kts
18-Oct-20 14:27 35.155030 -120.505204 126 31052ft 325kts
18-Oct-20 14:28 35.101746 -120.412232 126 31065ft 324kts
18-Oct-20 14:29 35.048585 -120.319717 126 31070ft 325kts
18-Oct-20 14:30 34.995313 -120.227204 127 31070ft 325kts
18-Oct-20 14:31 34.941613 -120.134238 128 31053ft 328kts
18-Oct-20 14:32 34.887425 -120.040665 129 31038ft 330kts
18-Oct-20 14:33 34.832657 -119.946411 129 31029ft 331kts
18-Oct-20 14:34 34.777675 -119.851983 129 31032ft 332kts
18-Oct-20 14:35 34.722681 -119.757780 129 31038ft 332kts
18-Oct-20 14:36 34.667448 -119.663420 129 31039ft 332kts
18-Oct-20 14:37 34.611911 -119.568792 129 31039ft 332kts
18-Oct-20 14:38 34.556341 -119.474358 129 31040ft 333kts
18-Oct-20 14:39 34.501305 -119.381077 129 31040ft 333kts
18-Oct-20 14:40 34.446210 -119.287938 130 31034ft 332kts
18-Oct-20 14:41 34.391294 -119.195346 130 31034ft 332kts
18-Oct-20 14:42 34.336206 -119.102700 130 31035ft 332kts
18-Oct-20 14:43 34.281120 -119.010310 130 31035ft 332kts
18-Oct-20 14:44 34.225412 -118.917119 129 31036ft 333kts
18-Oct-20 14:45 34.169686 -118.824129 129 31038ft 336kts
18-Oct-20 14:46 34.113051 -118.729832 129 31038ft 338kts
18-Oct-20 14:47 34.056231 -118.635498 129 31039ft 339kts
18-Oct-20 14:48 33.999443 -118.541473 129 31039ft 339kts
18-Oct-20 14:49 33.942483 -118.447402 129 31040ft 340kts
18-Oct-20 14:50 33.878951 -118.361759 136 31041ft 337kts
18-Oct-20 14:51 33.813933 -118.277650 137 31032ft 336kts
18-Oct-20 14:52 33.748832 -118.192925 136 31030ft 336kts
18-Oct-20 14:53 33.684868 -118.108919 136 31028ft 336kts
18-Oct-20 14:54 33.620893 -118.025096 136 31027ft 335kts
18-Oct-20 14:55 33.556729 -117.941223 136 31027ft 336kts
18-Oct-20 14:56 33.489122 -117.861902 140 31028ft 334kts
18-Oct-20 14:57 33.418414 -117.782007 141 29858ft 363kts
18-Oct-20 14:58 33.347801 -117.706472 141 26971ft 313kts
18-Oct-20 14:59 33.285885 -117.640384 141 24151ft 237kts
18-Oct-20 15:00 33.241929 -117.593768 141 20014ft 201kts
18-Oct-20 15:01 33.198357 -117.547854 140 17997ft 197kts
18-Oct-20 15:02 33.145875 -117.492704 138 15532ft 309kts
18-Oct-20 15:03 33.075039 -117.431760 145 13367ft 291kts
18-Oct-20 15:04 33.006547 -117.374431 145 11505ft 292kts
18-Oct-20 15:05 32.938807 -117.317686 146 9608ft 294kts
18-Oct-20 15:07 32.876155 -117.265463 147 8981ft 243kts
18-Oct-20 15:08 32.817130 -117.215670 136 7045ft 274kts
18-Oct-20 15:09 32.794558 -117.134613 105 6997ft 253kts
18-Oct-20 15:10 32.773941 -117.051545 115 5987ft 247kts
18-Oct-20 15:11 32.747093 -116.978617 107 5995ft 229kts
18-Oct-20 15:12 32.707434 -116.935648 212 5010ft 225kts
18-Oct-20 15:13 32.698320 -117.004283 271 3456ft 207kts
18-Oct-20 15:14 32.703397 -117.067527 286 2512ft 147kts
18-Oct-20 15:15 32.712333 -117.102192 286 1701ft 91kts
18-Oct-20 15:16 32.719465 -117.131838 287 1104ft 91kts
18-Oct-20 15:17 32.726587 -117.160982 287 454ft 89kts
18-Oct-20 15:18 32.732839 -117.186764 286 20ft 39kts
18-Oct-20 15:19 32.734116 -117.187244 104 20ft 13kts
18-Oct-20 15:20 32.733008 -117.182677 106 20ft 10kts
18-Oct-20 15:21 32.733625 -117.179486 23 20ft 13kts
18-Oct-20 15:22 32.733731 -117.178645 233 20ft 0kts
18-Oct-20 15:23 32.733731 -117.178645 233 20ft 0kts

Navigation Log

Ident Type
Flight plan parsing failed, navigation log unavailable